createdAt,value
2023-08-07T00:02:08.338Z,12.30
2023-08-07T00:04:35.133Z,12.20
2023-08-07T00:07:01.932Z,12.20
2023-08-07T00:09:29.469Z,12.30
2023-08-07T00:11:57.173Z,12.30
2023-08-07T00:14:24.447Z,12.30
2023-08-07T00:16:51.494Z,12.30
2023-08-07T00:19:20.540Z,12.30
2023-08-07T00:21:51.893Z,12.30
2023-08-07T00:24:20.490Z,12.30
2023-08-07T00:26:47.161Z,12.30
2023-08-07T00:29:14.551Z,12.30
2023-08-07T00:31:41.260Z,12.30
2023-08-07T00:34:08.505Z,12.30
2023-08-07T00:36:36.087Z,12.30
2023-08-07T00:39:06.627Z,12.20
2023-08-07T00:41:33.326Z,12.30
2023-08-07T00:44:01.921Z,12.30
2023-08-07T00:46:35.696Z,12.20
2023-08-07T00:49:03.419Z,12.20
2023-08-07T00:51:31.310Z,12.10
2023-08-07T00:53:58.128Z,12.10
2023-08-07T00:56:25.069Z,12.10
2023-08-07T00:58:51.874Z,12.10
2023-08-07T01:01:18.802Z,12.10
2023-08-07T01:03:45.661Z,12.00
2023-08-07T01:06:12.617Z,12.00
2023-08-07T01:08:39.393Z,12.00
2023-08-07T01:11:08.681Z,11.90
2023-08-07T01:13:41.645Z,11.90
2023-08-07T01:16:15.251Z,11.90
2023-08-07T01:21:20.677Z,11.80
2023-08-07T01:23:50.383Z,11.80
2023-08-07T01:26:18.415Z,11.70
2023-08-07T01:28:48.602Z,11.70
2023-08-07T01:31:17.489Z,11.70
2023-08-07T01:34:00.272Z,11.60
2023-08-07T01:36:28.922Z,11.60
2023-08-07T01:38:59.537Z,11.60
2023-08-07T01:41:28.321Z,11.60
2023-08-07T01:43:55.758Z,11.50
2023-08-07T01:46:23.042Z,11.50
2023-08-07T01:48:50.173Z,11.50
2023-08-07T01:51:17.267Z,11.50
2023-08-07T01:53:44.901Z,11.50
2023-08-07T01:56:12.788Z,11.40
2023-08-07T01:58:39.665Z,11.40
2023-08-07T02:01:07.703Z,11.40
2023-08-07T02:03:34.498Z,11.40
2023-08-07T02:06:02.992Z,11.40
2023-08-07T02:08:29.731Z,11.30
2023-08-07T02:10:56.984Z,11.40
2023-08-07T02:13:24.786Z,11.30
2023-08-07T02:15:58.944Z,11.30
2023-08-07T02:18:25.698Z,11.30
2023-08-07T02:20:52.445Z,11.30
2023-08-07T02:23:21.128Z,11.20
2023-08-07T02:25:49.194Z,11.20
2023-08-07T02:28:16.628Z,11.20
2023-08-07T02:30:48.982Z,11.20
2023-08-07T02:33:16.324Z,11.20
2023-08-07T02:35:43.238Z,11.10
2023-08-07T02:38:11.841Z,11.10
2023-08-07T02:40:39.080Z,11.10
2023-08-07T02:43:05.814Z,11.10
2023-08-07T02:45:32.764Z,11.10
2023-08-07T02:47:59.484Z,11.10
2023-08-07T02:50:28.643Z,11.10
2023-08-07T02:52:56.728Z,11.10
2023-08-07T02:55:26.159Z,11.10
2023-08-07T02:57:53.160Z,11.00
2023-08-07T03:00:22.254Z,11.00
2023-08-07T03:02:50.325Z,11.10
2023-08-07T03:05:17.516Z,11.00
2023-08-07T03:07:44.350Z,11.00
2023-08-07T03:10:11.103Z,11.00
2023-08-07T03:12:38.793Z,11.00
2023-08-07T03:15:06.730Z,11.00
2023-08-07T03:17:33.875Z,11.00
2023-08-07T03:20:00.839Z,11.00
2023-08-07T03:22:28.129Z,10.90
2023-08-07T03:24:54.815Z,11.00
2023-08-07T03:27:21.745Z,11.00
2023-08-07T03:29:49.441Z,11.00
2023-08-07T03:32:16.922Z,10.90
2023-08-07T03:34:43.640Z,10.90
2023-08-07T03:37:10.405Z,11.00
2023-08-07T03:39:37.333Z,10.90
2023-08-07T03:42:04.193Z,10.90
2023-08-07T03:44:31.204Z,10.90
2023-08-07T03:46:59.448Z,10.90
2023-08-07T03:49:26.406Z,10.90
2023-08-07T03:51:53.219Z,10.90
2023-08-07T03:54:20.965Z,11.00
2023-08-07T03:56:48.158Z,10.90
2023-08-07T03:59:17.290Z,10.90
2023-08-07T04:01:44.462Z,10.90
2023-08-07T04:04:13.914Z,10.90
2023-08-07T04:06:42.139Z,10.90
2023-08-07T04:09:11.263Z,11.00
2023-08-07T04:11:38.064Z,11.00
2023-08-07T04:14:06.552Z,10.90
2023-08-07T04:16:33.516Z,10.90
2023-08-07T04:19:00.540Z,10.90
2023-08-07T04:21:27.952Z,10.90
2023-08-07T04:23:55.679Z,10.90
2023-08-07T04:26:23.815Z,11.00
2023-08-07T04:28:50.794Z,11.00
2023-08-07T04:31:20.027Z,11.00
2023-08-07T04:33:49.697Z,11.00
2023-08-07T04:36:16.367Z,11.00
2023-08-07T04:38:51.420Z,11.00
2023-08-07T04:41:18.350Z,11.00
2023-08-07T04:43:45.954Z,11.00
2023-08-07T04:46:16.389Z,11.00
2023-08-07T04:48:43.594Z,11.00
2023-08-07T04:51:10.327Z,11.00
2023-08-07T04:53:38.309Z,11.00
2023-08-07T04:56:06.357Z,11.00
2023-08-07T04:58:33.120Z,11.00
2023-08-07T05:01:01.080Z,11.00
2023-08-07T05:03:32.949Z,11.00
2023-08-07T05:06:03.124Z,10.90
2023-08-07T05:08:30.146Z,11.00
2023-08-07T05:10:59.327Z,11.00
2023-08-07T05:13:27.260Z,11.00
2023-08-07T05:15:55.998Z,11.00
2023-08-07T05:18:23.203Z,10.90
2023-08-07T05:23:36.165Z,10.90
2023-08-07T05:26:03.294Z,10.90
2023-08-07T05:28:30.761Z,10.90
2023-08-07T05:30:59.492Z,10.80
2023-08-07T05:33:26.822Z,10.80
2023-08-07T05:35:56.846Z,10.80
2023-08-07T05:38:24.903Z,10.80
2023-08-07T05:40:55.043Z,10.80
2023-08-07T05:43:22.099Z,10.80
2023-08-07T05:45:52.433Z,10.80
2023-08-07T05:48:20.784Z,10.80
2023-08-07T05:50:47.709Z,10.80
2023-08-07T05:53:14.406Z,10.90
2023-08-07T05:55:43.355Z,10.90
2023-08-07T05:58:10.142Z,10.90
2023-08-07T06:00:37.248Z,11.00
2023-08-07T06:03:06.947Z,11.00
2023-08-07T06:05:36.707Z,11.10
2023-08-07T06:08:03.504Z,11.20
2023-08-07T06:10:32.937Z,11.30
2023-08-07T06:12:59.778Z,11.40
2023-08-07T06:15:26.783Z,11.40
2023-08-07T06:17:54.578Z,11.50
2023-08-07T06:20:21.813Z,11.60
2023-08-07T06:22:48.489Z,11.70
2023-08-07T06:25:15.220Z,11.80
2023-08-07T06:27:42.221Z,11.80
2023-08-07T06:30:11.309Z,11.80
2023-08-07T06:32:38.579Z,11.90
2023-08-07T06:35:05.863Z,12.00
2023-08-07T06:37:32.640Z,12.00
2023-08-07T06:39:59.467Z,12.10
2023-08-07T06:42:26.548Z,12.10
2023-08-07T06:44:54.504Z,12.20
2023-08-07T06:47:21.508Z,12.20
2023-08-07T06:49:48.324Z,12.30
2023-08-07T06:52:15.529Z,12.30
2023-08-07T06:54:43.481Z,12.30
2023-08-07T06:57:10.257Z,12.40
2023-08-07T06:59:37.596Z,12.50
2023-08-07T07:02:04.711Z,12.60
2023-08-07T07:04:31.596Z,12.60
2023-08-07T07:06:58.339Z,12.80
2023-08-07T07:09:25.460Z,12.80
2023-08-07T07:11:52.234Z,13.00
2023-08-07T07:14:18.996Z,13.00
2023-08-07T07:16:48.668Z,13.10
2023-08-07T07:19:15.487Z,13.20
2023-08-07T07:21:42.713Z,13.20
2023-08-07T07:24:09.459Z,13.30
2023-08-07T07:26:36.676Z,13.40
2023-08-07T07:29:05.803Z,13.50
2023-08-07T07:31:32.547Z,13.50
2023-08-07T07:34:01.899Z,13.60
2023-08-07T07:36:29.133Z,13.70
2023-08-07T07:38:55.825Z,13.80
2023-08-07T07:41:23.220Z,14.00
2023-08-07T07:43:50.092Z,14.20
2023-08-07T07:46:16.778Z,14.40
2023-08-07T07:48:45.212Z,14.50
2023-08-07T07:51:11.889Z,14.70
2023-08-07T07:53:38.654Z,14.90
2023-08-07T07:56:09.542Z,15.10
2023-08-07T07:58:36.216Z,15.30
2023-08-07T08:01:03.264Z,15.40
2023-08-07T08:03:30.008Z,15.60
2023-08-07T08:05:57.696Z,15.70
2023-08-07T08:08:25.811Z,15.90
2023-08-07T08:10:56.372Z,16.00
2023-08-07T08:13:23.713Z,16.10
2023-08-07T08:15:51.742Z,16.30
2023-08-07T08:18:20.153Z,16.30
2023-08-07T08:20:46.856Z,16.20
2023-08-07T08:23:16.476Z,16.10
2023-08-07T08:25:43.164Z,16.00
2023-08-07T08:28:10.462Z,15.80
2023-08-07T08:30:37.484Z,15.50
2023-08-07T08:33:06.652Z,15.50
2023-08-07T08:35:33.744Z,15.60
2023-08-07T08:38:04.220Z,15.60
2023-08-07T08:40:32.025Z,15.50
2023-08-07T08:43:01.740Z,15.50
2023-08-07T08:45:29.134Z,15.60
2023-08-07T08:47:56.252Z,15.80
2023-08-07T08:50:23.280Z,16.00
2023-08-07T08:52:52.238Z,16.30
2023-08-07T08:55:20.810Z,16.40
2023-08-07T08:57:49.394Z,16.60
2023-08-07T09:00:21.862Z,16.60
2023-08-07T09:02:49.483Z,16.80
2023-08-07T09:05:17.437Z,17.00
2023-08-07T09:07:48.040Z,17.20
2023-08-07T09:10:15.515Z,17.30
2023-08-07T09:12:47.946Z,17.20
2023-08-07T09:15:16.105Z,17.20
2023-08-07T09:17:45.971Z,17.10
2023-08-07T09:20:14.415Z,16.90
2023-08-07T09:22:41.996Z,16.80
2023-08-07T09:25:10.867Z,16.70
2023-08-07T09:27:42.892Z,16.60
2023-08-07T09:30:11.914Z,16.70
2023-08-07T09:32:40.871Z,17.00
2023-08-07T09:35:10.210Z,17.00
2023-08-07T09:37:38.212Z,17.10
2023-08-07T09:40:05.257Z,16.90
2023-08-07T09:42:33.695Z,16.90
2023-08-07T09:45:03.922Z,17.00
2023-08-07T09:47:31.027Z,17.30
2023-08-07T09:49:57.921Z,17.60
2023-08-07T09:52:26.519Z,17.90
2023-08-07T09:54:56.624Z,17.90
2023-08-07T09:57:23.667Z,18.30
2023-08-07T09:59:50.814Z,18.40
2023-08-07T10:02:25.183Z,18.60
2023-08-07T10:04:53.806Z,18.70
2023-08-07T10:07:23.748Z,18.80
2023-08-07T10:09:50.490Z,18.90
2023-08-07T10:12:17.575Z,18.70
2023-08-07T10:14:46.207Z,18.60
2023-08-07T10:17:13.163Z,18.50
2023-08-07T10:19:40.859Z,18.30
2023-08-07T10:22:10.348Z,18.30
2023-08-07T10:24:39.615Z,18.20
2023-08-07T10:27:07.039Z,18.00
2023-08-07T10:29:34.405Z,17.80
2023-08-07T10:32:02.751Z,17.70
2023-08-07T10:34:30.354Z,17.60
2023-08-07T10:36:57.308Z,17.70
2023-08-07T10:39:24.614Z,17.70
2023-08-07T10:41:56.103Z,17.70
2023-08-07T10:44:24.632Z,17.70
2023-08-07T10:46:55.342Z,17.70
2023-08-07T10:49:33.998Z,17.90
2023-08-07T10:52:11.613Z,18.20
2023-08-07T10:54:45.630Z,18.40
2023-08-07T10:57:14.922Z,18.60
2023-08-07T10:59:50.503Z,18.60
2023-08-07T11:02:24.158Z,18.80
2023-08-07T11:04:51.511Z,19.10
2023-08-07T11:07:28.427Z,19.20
2023-08-07T11:09:55.410Z,19.20
2023-08-07T11:12:24.538Z,19.00
2023-08-07T11:14:51.446Z,18.60
2023-08-07T11:17:21.354Z,18.30
2023-08-07T11:19:48.554Z,18.00
2023-08-07T11:22:20.562Z,17.70
2023-08-07T11:24:47.667Z,17.50
2023-08-07T11:27:14.453Z,17.30
2023-08-07T11:29:41.394Z,17.00
2023-08-07T11:32:10.710Z,16.90
2023-08-07T11:34:39.048Z,16.80
2023-08-07T11:37:06.075Z,16.80
2023-08-07T11:39:32.857Z,16.90
2023-08-07T11:42:00.890Z,17.40
2023-08-07T11:44:30.177Z,18.00
2023-08-07T11:46:59.549Z,18.70
2023-08-07T11:49:28.809Z,19.40
2023-08-07T11:51:58.747Z,20.10
2023-08-07T11:54:29.312Z,20.50
2023-08-07T11:56:56.367Z,20.80
2023-08-07T11:59:23.264Z,20.70
2023-08-07T12:01:50.263Z,20.30
2023-08-07T12:04:18.639Z,20.30
2023-08-07T12:06:56.651Z,20.80
2023-08-07T12:09:27.504Z,21.20
2023-08-07T12:12:03.097Z,21.70
2023-08-07T12:14:31.882Z,21.90
2023-08-07T12:17:02.195Z,22.30
2023-08-07T12:19:39.245Z,22.40
2023-08-07T12:22:09.575Z,22.30
2023-08-07T12:24:38.259Z,21.80
2023-08-07T12:27:07.432Z,20.80
2023-08-07T12:29:34.764Z,20.20
2023-08-07T12:32:03.580Z,19.70
2023-08-07T12:37:18.682Z,19.70
2023-08-07T12:44:45.024Z,20.90
2023-08-07T12:47:11.790Z,21.20
2023-08-07T12:49:38.982Z,21.40
2023-08-07T12:52:05.981Z,21.80
2023-08-07T12:54:32.978Z,21.80
2023-08-07T12:56:59.786Z,22.20
2023-08-07T12:59:26.749Z,22.50
2023-08-07T13:01:54.520Z,22.50
2023-08-07T13:04:23.038Z,22.30
2023-08-07T13:06:51.307Z,22.00
2023-08-07T13:09:18.648Z,21.80
2023-08-07T13:11:47.051Z,21.90
2023-08-07T13:14:19.641Z,22.00
2023-08-07T13:16:46.580Z,22.00
2023-08-07T13:19:13.668Z,22.30
2023-08-07T13:21:43.085Z,22.50
2023-08-07T13:24:09.788Z,22.80
2023-08-07T13:26:37.799Z,22.60
2023-08-07T13:29:06.921Z,22.60
2023-08-07T13:31:33.629Z,22.60
2023-08-07T13:34:00.821Z,22.90
2023-08-07T13:36:27.562Z,23.20
2023-08-07T13:38:56.971Z,23.40
2023-08-07T13:41:23.733Z,23.40
2023-08-07T13:43:51.691Z,23.30
2023-08-07T13:46:23.440Z,23.40
2023-08-07T13:48:50.357Z,23.20
2023-08-07T13:51:17.231Z,22.60
2023-08-07T13:53:46.974Z,22.10
2023-08-07T13:56:13.990Z,21.70
2023-08-07T13:58:41.019Z,21.80
2023-08-07T14:01:08.216Z,22.10
2023-08-07T14:03:35.583Z,22.40
2023-08-07T14:06:03.425Z,22.80
2023-08-07T14:08:30.352Z,22.70
2023-08-07T14:10:57.276Z,22.50
2023-08-07T14:13:24.553Z,22.60
2023-08-07T14:15:51.538Z,22.40
2023-08-07T14:18:18.426Z,22.60
2023-08-07T14:21:00.733Z,22.50
2023-08-07T14:23:33.236Z,22.40
2023-08-07T14:26:03.553Z,22.10
2023-08-07T14:28:31.866Z,21.80
2023-08-07T14:30:59.831Z,21.80
2023-08-07T14:33:31.453Z,21.40
2023-08-07T14:35:58.235Z,21.00
2023-08-07T14:38:25.157Z,20.50
2023-08-07T14:40:52.152Z,19.90
2023-08-07T14:43:19.169Z,19.50
2023-08-07T14:45:45.964Z,19.10
2023-08-07T14:48:15.062Z,18.90
2023-08-07T14:50:42.416Z,18.60
2023-08-07T14:53:09.267Z,18.50
2023-08-07T14:55:36.042Z,18.50
2023-08-07T14:58:03.027Z,18.80
2023-08-07T15:00:29.903Z,19.10
2023-08-07T15:02:59.100Z,19.30
2023-08-07T15:05:25.937Z,19.50
2023-08-07T15:07:52.962Z,19.40
2023-08-07T15:10:22.757Z,19.40
2023-08-07T15:12:49.708Z,19.30
2023-08-07T15:15:16.500Z,19.10
2023-08-07T15:17:43.236Z,19.00
2023-08-07T15:20:11.539Z,18.80
2023-08-07T15:22:38.237Z,18.80
2023-08-07T15:25:05.187Z,18.80
2023-08-07T15:27:32.130Z,18.70
2023-08-07T15:29:59.150Z,18.40
2023-08-07T15:32:27.646Z,18.30
2023-08-07T15:34:54.476Z,18.30
2023-08-07T15:37:23.857Z,18.30
2023-08-07T15:39:50.559Z,18.30
2023-08-07T15:42:17.421Z,18.10
2023-08-07T15:44:44.384Z,18.00
2023-08-07T15:47:12.126Z,17.80
2023-08-07T15:49:39.344Z,17.70
2023-08-07T15:52:06.455Z,17.70
2023-08-07T15:54:33.188Z,17.70
2023-08-07T15:57:01.017Z,17.80
2023-08-07T15:59:28.462Z,17.80
2023-08-07T16:01:55.210Z,17.80
2023-08-07T16:04:26.661Z,17.80
2023-08-07T16:06:54.269Z,17.80
2023-08-07T16:09:21.191Z,17.80
2023-08-07T16:11:48.609Z,17.70
2023-08-07T16:14:16.333Z,17.50
2023-08-07T16:16:43.283Z,17.30
2023-08-07T16:19:12.767Z,17.30
2023-08-07T16:21:40.729Z,17.10
2023-08-07T16:24:08.305Z,17.10
2023-08-07T16:26:35.197Z,17.00
2023-08-07T16:29:06.342Z,17.10
2023-08-07T16:31:33.035Z,16.90
2023-08-07T16:34:01.953Z,16.80
2023-08-07T16:36:29.100Z,16.70
2023-08-07T16:38:57.398Z,16.40
2023-08-07T16:41:24.396Z,16.30
2023-08-07T16:43:53.526Z,16.00
2023-08-07T16:46:22.115Z,15.90
2023-08-07T16:48:50.120Z,15.80
2023-08-07T16:51:20.751Z,15.70
2023-08-07T16:53:49.410Z,15.70
2023-08-07T16:56:18.387Z,15.60
2023-08-07T16:58:51.510Z,15.50
2023-08-07T17:01:18.887Z,15.50
2023-08-07T17:03:45.717Z,15.40
2023-08-07T17:06:12.931Z,15.40
2023-08-07T17:08:40.333Z,15.40
2023-08-07T17:11:07.373Z,15.40
2023-08-07T17:13:37.169Z,15.50
2023-08-07T17:16:09.463Z,15.50
2023-08-07T17:18:39.145Z,15.50
2023-08-07T17:21:06.066Z,15.50
2023-08-07T17:23:33.186Z,15.40
2023-08-07T17:26:02.357Z,15.40
2023-08-07T17:28:31.293Z,15.30
2023-08-07T17:30:58.555Z,15.30
2023-08-07T17:33:28.650Z,15.20
2023-08-07T17:35:55.372Z,15.20
2023-08-07T17:38:22.364Z,15.10
2023-08-07T17:40:50.590Z,15.00
2023-08-07T17:43:17.486Z,15.00
2023-08-07T17:45:44.289Z,15.00
2023-08-07T17:48:11.967Z,14.90
2023-08-07T17:50:40.580Z,14.90
2023-08-07T17:53:07.454Z,14.90
2023-08-07T17:55:39.345Z,14.80
2023-08-07T17:58:09.049Z,14.70
2023-08-07T18:00:36.603Z,14.70
2023-08-07T18:03:04.578Z,14.60
2023-08-07T18:05:32.626Z,14.60
2023-08-07T18:07:59.694Z,14.50
2023-08-07T18:10:26.837Z,14.40
2023-08-07T18:12:53.605Z,14.30
2023-08-07T18:15:23.052Z,14.30
2023-08-07T18:17:51.845Z,14.20
2023-08-07T18:20:19.173Z,14.20
2023-08-07T18:22:49.574Z,14.10
2023-08-07T18:25:18.604Z,14.10
2023-08-07T18:27:45.516Z,14.10
2023-08-07T18:30:15.047Z,14.00
2023-08-07T18:32:43.927Z,14.00
2023-08-07T18:35:14.661Z,14.00
2023-08-07T18:37:41.549Z,14.00
2023-08-07T18:40:09.343Z,14.00
2023-08-07T18:42:36.277Z,13.90
2023-08-07T18:45:07.395Z,13.90
2023-08-07T18:47:34.195Z,13.90
2023-08-07T18:50:01.146Z,13.90
2023-08-07T18:55:10.648Z,13.90
2023-08-07T18:57:38.087Z,13.80
2023-08-07T19:00:08.905Z,13.80
2023-08-07T19:02:36.108Z,13.80
2023-08-07T19:05:03.916Z,13.70
2023-08-07T19:07:32.038Z,13.70
2023-08-07T19:09:59.147Z,13.70
2023-08-07T19:12:26.058Z,13.70
2023-08-07T19:14:54.630Z,13.70
2023-08-07T19:17:22.570Z,13.60
2023-08-07T19:19:52.549Z,13.60
2023-08-07T19:22:21.248Z,13.60
2023-08-07T19:24:49.561Z,13.60
2023-08-07T19:27:21.090Z,13.60
2023-08-07T19:29:47.816Z,13.60
2023-08-07T19:32:20.489Z,13.60
2023-08-07T19:34:48.448Z,13.60
2023-08-07T19:37:15.585Z,13.60
2023-08-07T19:39:44.787Z,13.60
2023-08-07T19:42:11.654Z,13.60
2023-08-07T19:44:38.767Z,13.60
2023-08-07T19:47:05.859Z,13.60
2023-08-07T19:49:33.802Z,13.60
2023-08-07T19:52:01.438Z,13.60
2023-08-07T19:54:28.827Z,13.60
2023-08-07T19:56:56.272Z,13.60
2023-08-07T19:59:25.014Z,13.60
2023-08-07T20:01:51.829Z,13.60
2023-08-07T20:04:18.997Z,13.50
2023-08-07T20:06:45.858Z,13.50
2023-08-07T20:09:12.896Z,13.50
2023-08-07T20:11:39.867Z,13.40
2023-08-07T20:14:06.740Z,13.30
2023-08-07T20:16:33.612Z,13.30
2023-08-07T20:19:00.641Z,13.20
2023-08-07T20:21:27.902Z,13.20
2023-08-07T20:23:57.916Z,13.10
2023-08-07T20:26:35.026Z,13.10
2023-08-07T20:29:02.538Z,13.10
2023-08-07T20:31:29.377Z,13.10
2023-08-07T20:33:59.619Z,13.10
2023-08-07T20:36:29.772Z,13.10
2023-08-07T20:38:57.187Z,13.00
2023-08-07T20:41:24.321Z,13.10
2023-08-07T20:43:52.018Z,13.10
2023-08-07T20:46:19.131Z,13.10
2023-08-07T20:48:47.653Z,13.10
2023-08-07T20:51:14.559Z,13.10
2023-08-07T20:53:41.270Z,13.10
2023-08-07T20:56:10.463Z,13.10
2023-08-07T20:58:37.525Z,13.10
2023-08-07T21:01:04.593Z,13.20
2023-08-07T21:03:33.030Z,13.10
2023-08-07T21:06:02.935Z,13.20
2023-08-07T21:08:34.957Z,13.10
2023-08-07T21:11:04.418Z,13.20
2023-08-07T21:13:32.381Z,13.20
2023-08-07T21:15:59.292Z,13.20
2023-08-07T21:18:26.324Z,13.20
2023-08-07T21:20:53.173Z,13.20
2023-08-07T21:23:22.297Z,13.20
2023-08-07T21:25:52.409Z,13.20
2023-08-07T21:28:19.487Z,13.20
2023-08-07T21:30:46.354Z,13.10
2023-08-07T21:33:14.851Z,13.10
2023-08-07T21:35:44.748Z,13.10
2023-08-07T21:38:11.401Z,13.10
2023-08-07T21:40:40.942Z,13.10
2023-08-07T21:43:08.466Z,13.10
2023-08-07T21:45:35.929Z,13.20
2023-08-07T21:48:04.172Z,13.10
2023-08-07T21:50:31.275Z,13.10
2023-08-07T21:52:58.899Z,13.10
2023-08-07T21:55:25.807Z,13.10
2023-08-07T21:57:52.620Z,13.10
2023-08-07T22:00:19.855Z,13.10
2023-08-07T22:02:47.406Z,13.10
2023-08-07T22:05:15.100Z,13.20
2023-08-07T22:07:44.350Z,13.10
2023-08-07T22:10:11.413Z,13.10
2023-08-07T22:12:38.262Z,13.20
2023-08-07T22:15:06.599Z,13.20
2023-08-07T22:17:34.722Z,13.20
2023-08-07T22:20:05.335Z,13.20
2023-08-07T22:22:34.308Z,13.10
2023-08-07T22:25:03.530Z,13.10
2023-08-07T22:27:33.458Z,13.10
2023-08-07T22:30:01.677Z,13.10
2023-08-07T22:32:29.294Z,13.10
2023-08-07T22:34:59.808Z,13.00
2023-08-07T22:37:26.761Z,12.90
2023-08-07T22:39:53.839Z,12.80
2023-08-07T22:42:20.586Z,12.80
2023-08-07T22:44:49.066Z,12.60
2023-08-07T22:47:17.125Z,12.50
2023-08-07T22:49:43.844Z,12.40
2023-08-07T22:52:13.553Z,12.40
2023-08-07T22:54:40.565Z,12.30
2023-08-07T22:57:07.484Z,12.30
2023-08-07T22:59:37.044Z,12.30
2023-08-07T23:02:04.189Z,12.30
2023-08-07T23:04:31.645Z,12.40
2023-08-07T23:07:00.778Z,12.40
2023-08-07T23:09:33.263Z,12.50
2023-08-07T23:12:00.257Z,12.50
2023-08-07T23:14:27.539Z,12.50
2023-08-07T23:16:55.966Z,12.40
2023-08-07T23:19:24.097Z,12.40
2023-08-07T23:21:51.010Z,12.40
2023-08-07T23:24:21.695Z,12.40
2023-08-07T23:26:49.603Z,12.40
2023-08-07T23:29:16.592Z,12.40
2023-08-07T23:31:43.547Z,12.40
2023-08-07T23:34:13.003Z,12.40
2023-08-07T23:36:39.902Z,12.50
2023-08-07T23:39:06.992Z,12.50
2023-08-07T23:41:33.865Z,12.60
2023-08-07T23:44:01.752Z,12.60
2023-08-07T23:46:29.807Z,12.60
2023-08-07T23:48:59.085Z,12.60
2023-08-07T23:51:26.437Z,12.60
2023-08-07T23:53:54.979Z,12.70
2023-08-07T23:56:21.862Z,12.70
2023-08-07T23:58:51.436Z,12.70
